createdAt,value
2022-12-18T00:00:24.796Z,40.57
2022-12-18T00:02:55.014Z,41.83
2022-12-18T00:05:24.441Z,43.87
2022-12-18T00:07:54.683Z,45.27
2022-12-18T00:10:23.154Z,49.90
2022-12-18T00:12:51.369Z,44.47
2022-12-18T00:15:19.758Z,42.30
2022-12-18T00:17:48.049Z,39.73
2022-12-18T00:20:16.317Z,42.27
2022-12-18T00:22:44.507Z,43.17
2022-12-18T00:25:13.992Z,53.20
2022-12-18T00:27:41.921Z,41.13
2022-12-18T00:30:11.128Z,47.20
2022-12-18T00:32:41.006Z,59.33
2022-12-18T00:35:10.128Z,42.40
2022-12-18T00:37:38.728Z,49.30
2022-12-18T00:40:10.552Z,45.90
2022-12-18T00:42:57.779Z,65.90
2022-12-18T00:45:28.031Z,46.97
2022-12-18T00:47:57.025Z,43.83
2022-12-18T00:50:27.139Z,41.40
2022-12-18T00:52:55.403Z,40.97
2022-12-18T00:55:24.250Z,46.33
2022-12-18T00:57:54.801Z,48.00
2022-12-18T01:00:24.371Z,39.53
2022-12-18T01:02:52.682Z,45.13
2022-12-18T01:05:21.455Z,41.20
2022-12-18T01:07:49.576Z,46.93
2022-12-18T01:10:17.633Z,43.73
2022-12-18T01:12:46.727Z,41.67
2022-12-18T01:15:19.725Z,48.23
2022-12-18T01:17:47.814Z,44.20
2022-12-18T01:20:17.857Z,44.10
2022-12-18T01:22:47.492Z,44.30
2022-12-18T01:25:16.520Z,39.40
2022-12-18T01:27:45.251Z,45.67
2022-12-18T01:30:14.308Z,44.50
2022-12-18T01:32:44.197Z,42.97
2022-12-18T01:35:12.528Z,42.73
2022-12-18T01:37:40.502Z,44.07
2022-12-18T01:40:09.975Z,42.37
2022-12-18T01:42:38.469Z,49.83
2022-12-18T01:45:10.704Z,44.27
2022-12-18T01:47:41.799Z,45.57
2022-12-18T01:50:14.232Z,46.00
2022-12-18T01:52:43.497Z,56.13
2022-12-18T01:55:13.597Z,59.40
2022-12-18T01:57:42.659Z,53.83
2022-12-18T02:00:16.215Z,66.47
2022-12-18T02:02:46.598Z,58.87
2022-12-18T02:05:19.565Z,83.93
2022-12-18T02:07:57.206Z,72.83
2022-12-18T02:10:30.143Z,67.23
2022-12-18T02:13:02.702Z,65.23
2022-12-18T02:15:40.032Z,65.03
2022-12-18T02:18:12.611Z,69.13
2022-12-18T02:20:46.829Z,62.03
2022-12-18T02:23:30.151Z,70.67
2022-12-18T02:26:10.382Z,75.17
2022-12-18T02:28:44.023Z,77.53
2022-12-18T02:31:16.739Z,72.20
2022-12-18T02:33:48.788Z,75.37
2022-12-18T02:36:18.536Z,80.60
2022-12-18T02:38:48.834Z,78.10
2022-12-18T02:41:22.629Z,84.47
2022-12-18T02:43:52.233Z,71.57
2022-12-18T02:46:42.215Z,72.17
2022-12-18T02:49:34.819Z,65.27
2022-12-18T02:52:08.172Z,71.87
2022-12-18T02:54:47.464Z,67.47
2022-12-18T02:57:22.153Z,63.57
2022-12-18T02:59:57.658Z,68.83
2022-12-18T03:02:32.843Z,68.83
2022-12-18T03:05:05.081Z,68.33
2022-12-18T03:07:40.245Z,75.63
2022-12-18T03:10:14.738Z,65.37
2022-12-18T03:12:49.015Z,65.93
2022-12-18T03:15:21.743Z,58.33
2022-12-18T03:18:01.253Z,63.03
2022-12-18T03:20:33.446Z,61.40
2022-12-18T03:23:06.013Z,58.83
2022-12-18T03:25:35.399Z,55.00
2022-12-18T03:28:05.561Z,68.67
2022-12-18T03:30:40.047Z,48.60
2022-12-18T03:33:11.665Z,50.70
2022-12-18T03:35:44.922Z,45.33
2022-12-18T03:38:14.932Z,50.40
2022-12-18T03:40:57.249Z,47.20
2022-12-18T03:43:44.086Z,49.37
2022-12-18T03:46:20.027Z,48.50
2022-12-18T03:48:51.300Z,43.93
2022-12-18T03:51:27.217Z,45.07
2022-12-18T03:53:59.875Z,43.00
2022-12-18T03:56:39.274Z,48.30
2022-12-18T03:59:10.999Z,46.07
2022-12-18T04:01:43.489Z,46.27
2022-12-18T04:04:15.543Z,39.70
2022-12-18T04:06:45.780Z,50.33
2022-12-18T04:09:14.817Z,48.37
2022-12-18T04:11:48.721Z,45.80
2022-12-18T04:14:19.788Z,60.90
2022-12-18T04:16:52.691Z,48.73
2022-12-18T04:19:25.230Z,45.77
2022-12-18T04:21:56.518Z,45.33
2022-12-18T04:24:25.787Z,49.40
2022-12-18T04:27:05.594Z,49.00
2022-12-18T04:29:44.150Z,42.23
2022-12-18T04:32:12.324Z,45.30
2022-12-18T04:34:42.954Z,50.53
2022-12-18T04:37:10.995Z,42.70
2022-12-18T04:39:40.069Z,43.73
2022-12-18T04:42:15.511Z,41.73
2022-12-18T04:44:45.679Z,39.53
2022-12-18T04:47:13.951Z,46.07
2022-12-18T04:49:42.357Z,43.17
2022-12-18T04:52:10.461Z,45.27
2022-12-18T04:54:38.397Z,44.50
2022-12-18T04:57:07.400Z,42.87
2022-12-18T04:59:35.624Z,42.73
2022-12-18T05:02:05.802Z,66.47
2022-12-18T05:04:33.996Z,38.43
2022-12-18T05:07:02.299Z,45.83
2022-12-18T05:09:31.675Z,55.53
2022-12-18T05:12:00.157Z,47.83
2022-12-18T05:14:28.542Z,42.40
2022-12-18T05:17:00.836Z,48.03
2022-12-18T05:19:34.213Z,57.30
2022-12-18T05:22:03.305Z,46.80
2022-12-18T05:24:31.714Z,57.63
2022-12-18T05:26:59.670Z,50.93
2022-12-18T05:29:30.052Z,53.97
2022-12-18T05:31:58.075Z,54.37
2022-12-18T05:34:28.616Z,58.93
2022-12-18T05:36:58.621Z,61.60
2022-12-18T05:39:27.783Z,50.53
2022-12-18T05:41:55.743Z,57.83
2022-12-18T05:44:23.777Z,55.87
2022-12-18T05:46:51.948Z,64.50
2022-12-18T05:49:20.138Z,54.13
2022-12-18T05:51:49.361Z,59.17
2022-12-18T05:54:18.901Z,54.13
2022-12-18T05:56:48.865Z,60.33
2022-12-18T05:59:17.308Z,60.40
2022-12-18T06:01:45.879Z,67.87
2022-12-18T06:04:14.645Z,82.40
2022-12-18T06:06:43.106Z,73.77
2022-12-18T06:09:11.582Z,57.27
2022-12-18T06:11:41.277Z,59.67
2022-12-18T06:14:12.414Z,79.93
2022-12-18T06:16:41.729Z,63.70
2022-12-18T06:19:09.913Z,61.57
2022-12-18T06:21:37.909Z,66.50
2022-12-18T06:24:06.794Z,67.73
2022-12-18T06:26:36.253Z,64.23
2022-12-18T06:29:05.589Z,65.43
2022-12-18T06:31:34.248Z,65.00
2022-12-18T06:34:04.735Z,57.17
2022-12-18T06:36:34.912Z,54.37
2022-12-18T06:39:03.412Z,61.03
2022-12-18T06:41:32.095Z,53.90
2022-12-18T06:44:00.699Z,61.10
2022-12-18T06:46:30.443Z,59.97
2022-12-18T06:48:59.746Z,61.43
2022-12-18T06:51:28.513Z,66.10
2022-12-18T06:53:58.283Z,56.07
2022-12-18T06:56:26.261Z,57.63
2022-12-18T06:58:55.868Z,55.87
2022-12-18T07:01:26.491Z,56.40
2022-12-18T07:03:56.810Z,56.07
2022-12-18T07:06:27.224Z,59.27
2022-12-18T07:08:57.520Z,55.00
2022-12-18T07:11:25.865Z,56.60
2022-12-18T07:13:54.614Z,51.77
2022-12-18T07:16:25.582Z,59.00
2022-12-18T07:18:56.644Z,52.70
2022-12-18T07:21:25.777Z,54.60
2022-12-18T07:23:55.396Z,52.97
2022-12-18T07:26:24.274Z,53.93
2022-12-18T07:28:52.941Z,55.90
2022-12-18T07:31:23.038Z,52.90
2022-12-18T07:33:54.350Z,57.97
2022-12-18T07:36:27.776Z,54.93
2022-12-18T07:38:58.862Z,53.10
2022-12-18T07:41:28.445Z,55.83
2022-12-18T07:43:57.564Z,51.07
2022-12-18T07:46:25.913Z,53.93
2022-12-18T07:48:54.167Z,54.90
2022-12-18T07:51:22.501Z,51.77
2022-12-18T07:53:52.386Z,53.13
2022-12-18T07:56:30.554Z,53.30
2022-12-18T07:59:04.702Z,50.13
2022-12-18T08:01:33.093Z,44.83
2022-12-18T08:04:01.400Z,46.13
2022-12-18T08:06:30.590Z,48.07
2022-12-18T08:08:59.929Z,48.93
2022-12-18T08:11:30.583Z,48.00
2022-12-18T08:13:58.918Z,49.50
2022-12-18T08:16:28.656Z,47.83
2022-12-18T08:18:57.232Z,44.70
2022-12-18T08:21:27.448Z,38.27
2022-12-18T08:23:57.403Z,50.13
2022-12-18T08:26:29.089Z,42.77
2022-12-18T08:28:58.514Z,46.17
2022-12-18T08:31:28.748Z,40.77
2022-12-18T08:33:58.056Z,43.93
2022-12-18T08:36:27.330Z,43.00
2022-12-18T08:38:56.634Z,41.67
2022-12-18T08:41:27.495Z,39.93
2022-12-18T08:44:13.197Z,44.87
2022-12-18T08:46:42.794Z,46.70
2022-12-18T08:49:11.952Z,40.50
2022-12-18T08:51:41.117Z,39.83
2022-12-18T08:54:09.301Z,41.17
2022-12-18T08:56:39.423Z,47.97
2022-12-18T08:59:07.420Z,44.27
2022-12-18T09:01:35.771Z,43.60
2022-12-18T09:04:05.034Z,43.30
2022-12-18T09:06:35.334Z,38.60
2022-12-18T09:09:05.283Z,44.77
2022-12-18T09:11:35.502Z,41.43
2022-12-18T09:14:05.774Z,40.50
2022-12-18T09:16:36.183Z,44.47
2022-12-18T09:19:05.218Z,42.60
2022-12-18T09:21:37.104Z,41.17
2022-12-18T09:24:08.703Z,45.73
2022-12-18T09:26:37.941Z,44.97
2022-12-18T09:29:09.156Z,41.20
2022-12-18T09:31:39.287Z,42.93
2022-12-18T09:34:09.063Z,44.43
2022-12-18T09:36:37.369Z,41.33
2022-12-18T09:39:08.461Z,43.20
2022-12-18T09:41:46.530Z,45.17
2022-12-18T09:44:27.298Z,45.87
2022-12-18T09:47:14.617Z,47.50
2022-12-18T09:49:47.404Z,47.70
2022-12-18T09:52:20.492Z,45.13
2022-12-18T09:54:52.232Z,49.63
2022-12-18T09:57:22.938Z,41.90
2022-12-18T09:59:56.809Z,45.67
2022-12-18T10:02:27.434Z,49.97
2022-12-18T10:05:05.347Z,46.63
2022-12-18T10:07:51.519Z,42.30
2022-12-18T10:10:29.677Z,44.30
2022-12-18T10:13:05.094Z,47.60
2022-12-18T10:15:41.168Z,48.37
2022-12-18T10:18:22.257Z,43.83
2022-12-18T10:20:57.039Z,41.77
2022-12-18T10:23:29.365Z,44.03
2022-12-18T10:26:03.266Z,49.10
2022-12-18T10:28:33.560Z,49.23
2022-12-18T10:31:03.816Z,50.83
2022-12-18T10:33:33.239Z,53.67
2022-12-18T10:36:02.469Z,59.07
2022-12-18T10:38:32.676Z,54.73
2022-12-18T10:41:05.461Z,57.97
2022-12-18T10:43:35.976Z,53.63
2022-12-18T10:46:20.142Z,59.63
2022-12-18T10:48:57.424Z,54.93
2022-12-18T10:51:31.649Z,114.50
2022-12-18T10:54:02.116Z,56.27
2022-12-18T10:56:32.786Z,55.13
2022-12-18T10:59:03.141Z,51.70
2022-12-18T11:01:48.391Z,51.53
2022-12-18T11:04:20.479Z,51.27
2022-12-18T11:07:01.944Z,47.83
2022-12-18T11:09:35.724Z,52.73
2022-12-18T11:12:07.942Z,45.47
2022-12-18T11:14:47.387Z,53.87
2022-12-18T11:17:25.830Z,46.17
2022-12-18T11:19:56.159Z,49.37
2022-12-18T11:22:28.625Z,48.40
2022-12-18T11:27:53.869Z,45.83
2022-12-18T11:30:27.764Z,46.57
2022-12-18T11:33:01.948Z,45.10
2022-12-18T11:35:55.478Z,45.37
2022-12-18T11:38:26.581Z,41.07
2022-12-18T11:40:59.338Z,43.27
2022-12-18T11:43:31.234Z,45.57
2022-12-18T11:46:05.241Z,42.10
2022-12-18T11:48:41.050Z,40.07
2022-12-18T11:51:27.961Z,43.03
2022-12-18T11:53:56.227Z,39.03
2022-12-18T11:56:36.160Z,38.63
2022-12-18T11:59:11.558Z,37.13
2022-12-18T12:01:53.063Z,45.10
2022-12-18T12:04:52.981Z,42.50
2022-12-18T12:07:31.442Z,41.27
2022-12-18T12:10:07.191Z,44.87
2022-12-18T12:12:51.292Z,41.87
2022-12-18T12:15:36.763Z,36.73
2022-12-18T12:18:11.803Z,39.00
2022-12-18T12:20:53.932Z,40.20
2022-12-18T12:23:29.438Z,34.47
2022-12-18T12:26:05.701Z,48.33
2022-12-18T12:28:54.987Z,160.57
2022-12-18T12:31:49.747Z,39.67
2022-12-18T12:34:21.336Z,34.30
2022-12-18T12:37:07.768Z,38.70
2022-12-18T12:39:40.001Z,36.93
2022-12-18T12:42:31.082Z,32.90
2022-12-18T12:45:04.138Z,37.93
2022-12-18T12:47:37.780Z,37.03
2022-12-18T12:50:13.309Z,36.33
2022-12-18T12:52:46.253Z,35.70
2022-12-18T12:55:19.327Z,37.93
2022-12-18T12:58:28.216Z,37.83
2022-12-18T13:01:10.402Z,40.93
2022-12-18T13:03:48.597Z,36.80
2022-12-18T13:06:22.371Z,34.27
2022-12-18T13:08:58.342Z,31.87
2022-12-18T13:12:00.298Z,38.63
2022-12-18T13:14:35.738Z,34.67
2022-12-18T13:17:37.086Z,33.80
2022-12-18T13:20:11.807Z,36.40
2022-12-18T13:22:44.154Z,37.70
2022-12-18T13:25:36.231Z,34.67
2022-12-18T13:28:13.750Z,36.90
2022-12-18T13:30:58.334Z,29.50
2022-12-18T13:34:09.431Z,35.43
2022-12-18T13:36:37.282Z,41.10
2022-12-18T13:39:36.117Z,35.47
2022-12-18T13:43:01.199Z,35.73
2022-12-18T13:45:42.401Z,33.93
2022-12-18T13:48:21.265Z,44.63
2022-12-18T13:51:17.136Z,38.27
2022-12-18T13:53:49.235Z,39.10
2022-12-18T13:56:18.437Z,42.20
2022-12-18T13:59:06.207Z,40.77
2022-12-18T14:01:35.490Z,39.73
2022-12-18T14:04:15.323Z,37.00
2022-12-18T14:06:44.090Z,37.03
2022-12-18T14:09:21.596Z,32.90
2022-12-18T14:11:50.552Z,38.23
2022-12-18T14:14:22.758Z,35.27
2022-12-18T14:16:53.562Z,37.77
2022-12-18T14:19:23.020Z,34.40
2022-12-18T14:21:53.405Z,32.60
2022-12-18T14:24:23.898Z,35.67
2022-12-18T14:26:52.854Z,35.87
2022-12-18T14:29:25.627Z,37.70
2022-12-18T14:32:17.862Z,58.57
2022-12-18T14:34:47.739Z,31.80
2022-12-18T14:37:17.160Z,23.77
2022-12-18T14:39:55.491Z,33.87
2022-12-18T14:42:29.227Z,27.67
2022-12-18T14:45:41.583Z,29.60
2022-12-18T14:48:22.825Z,30.43
2022-12-18T14:50:59.806Z,29.70
2022-12-18T14:53:36.598Z,30.47
2022-12-18T14:56:06.197Z,30.53
2022-12-18T14:58:36.349Z,33.80
2022-12-18T15:01:06.263Z,31.83
2022-12-18T15:03:36.503Z,31.90
2022-12-18T15:06:19.013Z,33.93
2022-12-18T15:08:47.206Z,32.40
2022-12-18T15:11:29.088Z,30.13
2022-12-18T15:14:00.161Z,32.57
2022-12-18T15:16:30.416Z,53.90
2022-12-18T15:18:59.086Z,38.90
2022-12-18T15:21:31.507Z,33.13
2022-12-18T15:24:03.279Z,32.67
2022-12-18T15:26:39.457Z,38.13
2022-12-18T15:29:22.927Z,33.33
2022-12-18T15:32:06.697Z,32.50
2022-12-18T15:34:36.125Z,25.60
2022-12-18T15:37:04.781Z,25.13
2022-12-18T15:39:33.112Z,25.93
2022-12-18T15:42:22.765Z,24.40
2022-12-18T15:44:51.485Z,28.20
2022-12-18T15:47:21.569Z,29.73
2022-12-18T15:49:51.276Z,28.53
2022-12-18T15:52:26.881Z,27.37
2022-12-18T15:55:12.919Z,27.17
2022-12-18T15:57:42.681Z,26.77
2022-12-18T16:00:14.921Z,33.53
2022-12-18T16:02:46.223Z,27.23
2022-12-18T16:05:17.922Z,30.50
2022-12-18T16:07:46.611Z,29.63
2022-12-18T16:10:16.634Z,30.70
2022-12-18T16:12:45.145Z,26.47
2022-12-18T16:15:22.509Z,26.97
2022-12-18T16:17:53.765Z,29.00
2022-12-18T16:20:25.144Z,27.07
2022-12-18T16:22:54.227Z,28.03
2022-12-18T16:25:27.259Z,30.93
2022-12-18T16:27:57.419Z,31.50
2022-12-18T16:30:32.750Z,33.50
2022-12-18T16:33:08.877Z,34.20
2022-12-18T16:35:38.116Z,32.43
2022-12-18T16:38:09.028Z,33.00
2022-12-18T16:41:01.792Z,34.13
2022-12-18T16:43:31.272Z,31.17
2022-12-18T16:46:04.096Z,33.23
2022-12-18T16:48:38.070Z,29.37
2022-12-18T16:51:07.294Z,31.27
2022-12-18T16:53:35.812Z,29.33
2022-12-18T16:56:06.226Z,30.73
2022-12-18T16:58:35.483Z,33.03
2022-12-18T17:01:08.621Z,28.60
2022-12-18T17:03:39.628Z,32.90
2022-12-18T17:06:08.822Z,30.67
2022-12-18T17:08:39.282Z,31.80
2022-12-18T17:11:10.494Z,29.40
2022-12-18T17:13:40.873Z,33.93
2022-12-18T17:16:10.767Z,35.40
2022-12-18T17:18:41.241Z,34.80
2022-12-18T17:21:12.191Z,33.77
2022-12-18T17:23:44.576Z,33.20
2022-12-18T17:26:13.849Z,34.83
2022-12-18T17:28:44.197Z,30.40
2022-12-18T17:31:14.291Z,36.53
2022-12-18T17:33:46.347Z,37.37
2022-12-18T17:36:16.588Z,37.20
2022-12-18T17:38:44.887Z,35.60
2022-12-18T17:41:14.972Z,34.27
2022-12-18T17:43:45.979Z,34.93
2022-12-18T17:46:16.066Z,36.53
2022-12-18T17:48:45.632Z,41.30
2022-12-18T17:51:14.606Z,37.20
2022-12-18T17:53:43.044Z,39.87
2022-12-18T17:56:13.802Z,39.33
2022-12-18T17:58:42.264Z,40.80
2022-12-18T18:01:12.355Z,37.97
2022-12-18T18:03:43.077Z,39.73
2022-12-18T18:06:13.850Z,38.37
2022-12-18T18:08:42.812Z,40.63
2022-12-18T18:11:31.554Z,40.77
2022-12-18T18:14:03.069Z,46.17
2022-12-18T18:16:34.306Z,42.93
2022-12-18T18:19:08.004Z,131.73
2022-12-18T18:21:41.046Z,42.07
2022-12-18T18:24:10.456Z,42.27
2022-12-18T18:26:41.640Z,46.67
2022-12-18T18:29:11.159Z,38.70
2022-12-18T18:31:43.367Z,42.37
2022-12-18T18:34:16.173Z,38.83
2022-12-18T18:36:46.609Z,39.30
2022-12-18T18:39:15.677Z,38.27
2022-12-18T18:41:48.015Z,44.40
2022-12-18T18:44:18.501Z,43.67
2022-12-18T18:46:48.709Z,44.83
2022-12-18T18:49:18.377Z,44.43
2022-12-18T18:51:51.501Z,44.00
2022-12-18T18:54:22.380Z,45.87
2022-12-18T18:59:39.577Z,49.93
2022-12-18T19:02:08.232Z,52.93
2022-12-18T19:04:41.224Z,43.37
2022-12-18T19:07:24.047Z,45.23
2022-12-18T19:10:04.135Z,43.83
2022-12-18T19:12:51.795Z,46.73
2022-12-18T19:15:20.197Z,48.07
2022-12-18T19:17:48.382Z,40.50
2022-12-18T19:20:24.725Z,43.13
2022-12-18T19:22:58.636Z,42.47
2022-12-18T19:25:39.974Z,42.77
2022-12-18T19:28:13.256Z,34.27
2022-12-18T19:30:57.309Z,42.93
2022-12-18T19:33:44.620Z,40.90
2022-12-18T19:36:15.727Z,48.13
2022-12-18T19:38:45.615Z,43.10
2022-12-18T19:41:15.641Z,49.00
2022-12-18T19:43:44.822Z,50.53
2022-12-18T19:46:16.030Z,49.97
2022-12-18T19:48:45.776Z,49.37
2022-12-18T19:51:16.886Z,49.57
2022-12-18T19:53:47.737Z,42.60
2022-12-18T19:56:18.744Z,40.47
2022-12-18T19:58:47.779Z,42.63
2022-12-18T20:01:18.943Z,43.60
2022-12-18T20:03:52.357Z,41.87
2022-12-18T20:06:26.748Z,46.03
2022-12-18T20:09:00.097Z,47.20
2022-12-18T20:11:29.903Z,43.13
2022-12-18T20:13:59.359Z,49.23
2022-12-18T20:16:28.600Z,44.37
2022-12-18T20:18:58.040Z,45.87
2022-12-18T20:21:26.493Z,45.87
2022-12-18T20:23:57.025Z,41.93
2022-12-18T20:26:25.826Z,47.90
2022-12-18T20:28:55.799Z,45.03
2022-12-18T20:31:24.851Z,45.43
2022-12-18T20:33:54.482Z,44.83
2022-12-18T20:36:28.215Z,45.97
2022-12-18T20:39:01.605Z,44.83
2022-12-18T20:41:36.064Z,47.13
2022-12-18T20:44:11.174Z,46.30
2022-12-18T20:46:53.267Z,46.07
2022-12-18T20:49:21.429Z,39.30
2022-12-18T20:51:52.487Z,44.80
2022-12-18T20:54:22.120Z,43.17
2022-12-18T20:56:50.589Z,37.87
2022-12-18T20:59:20.304Z,41.73
2022-12-18T21:01:49.467Z,44.90
2022-12-18T21:04:20.328Z,37.30
2022-12-18T21:06:55.716Z,47.63
2022-12-18T21:09:36.214Z,40.77
2022-12-18T21:12:25.774Z,34.40
2022-12-18T21:14:54.934Z,40.77
2022-12-18T21:17:24.009Z,38.63
2022-12-18T21:19:56.234Z,42.33
2022-12-18T21:22:27.107Z,43.73
2022-12-18T21:24:57.866Z,43.07
2022-12-18T21:27:27.524Z,43.87
2022-12-18T21:29:55.879Z,44.20
2022-12-18T21:32:31.928Z,41.47
2022-12-18T21:35:01.855Z,41.83
2022-12-18T21:37:30.956Z,41.13
2022-12-18T21:40:00.968Z,41.73
2022-12-18T21:42:46.887Z,38.40
2022-12-18T21:45:16.066Z,41.73
2022-12-18T21:47:44.737Z,37.90
2022-12-18T21:50:13.547Z,42.80
2022-12-18T21:52:42.626Z,39.77
2022-12-18T21:55:13.398Z,38.30
2022-12-18T21:57:42.891Z,37.77
2022-12-18T22:00:18.871Z,35.23
2022-12-18T22:03:07.376Z,41.37
2022-12-18T22:05:37.318Z,39.40
2022-12-18T22:08:06.854Z,42.20
2022-12-18T22:10:37.353Z,40.87
2022-12-18T22:13:08.364Z,38.17
2022-12-18T22:15:36.981Z,40.97
2022-12-18T22:18:14.519Z,41.47
2022-12-18T22:20:43.297Z,39.93
2022-12-18T22:23:13.012Z,39.70
2022-12-18T22:25:42.610Z,31.67
2022-12-18T22:28:28.684Z,38.13
2022-12-18T22:30:59.521Z,34.70
2022-12-18T22:33:29.088Z,35.20
2022-12-18T22:35:58.599Z,32.03
2022-12-18T22:38:28.749Z,37.57
2022-12-18T22:40:59.369Z,33.80
2022-12-18T22:43:28.652Z,37.23
2022-12-18T22:45:57.184Z,34.53
2022-12-18T22:48:28.552Z,34.97
2022-12-18T22:51:00.636Z,39.70
2022-12-18T22:53:29.263Z,30.93
2022-12-18T22:56:05.821Z,34.87
2022-12-18T22:58:39.127Z,34.97
2022-12-18T23:01:09.758Z,37.23
2022-12-18T23:03:41.964Z,33.13
2022-12-18T23:06:14.822Z,32.40
2022-12-18T23:08:45.211Z,35.40
2022-12-18T23:11:19.790Z,32.87
2022-12-18T23:13:54.123Z,37.63
2022-12-18T23:16:25.962Z,35.73
2022-12-18T23:18:56.464Z,35.33
2022-12-18T23:21:26.763Z,34.10
2022-12-18T23:23:55.750Z,38.00
2022-12-18T23:26:27.281Z,31.47
2022-12-18T23:28:56.601Z,38.63
2022-12-18T23:31:27.513Z,32.87
2022-12-18T23:33:59.122Z,30.80
2022-12-18T23:36:27.686Z,32.30
2022-12-18T23:39:00.851Z,32.33
2022-12-18T23:41:32.663Z,33.93
2022-12-18T23:44:03.823Z,34.17
2022-12-18T23:46:40.581Z,32.27
2022-12-18T23:49:09.407Z,42.07
2022-12-18T23:51:37.842Z,36.97
2022-12-18T23:54:08.276Z,34.47
2022-12-18T23:56:40.069Z,32.33
2022-12-18T23:59:11.120Z,30.30
